Time;durP1;ratioP1;P1;durP2;ratioP2;P2;SDS_P1;SDS_P2;PMS_P1;PMS_P2;Temp;Humidity;BMP_temperature;BMP_pressure;BME280_temperature;BME280_humidity;BME280_pressure;Samples;Min_cycle;Max_cycle;Signal;HPM_P1;HPM_P2
2021/03/21 00:01:43;;;;;;;7.80;4.93;;;;;;;;;;5072313;27;20214;-78
2021/03/21 00:04:13;;;;;;;6.27;4.93;;;;;;;;;;5083556;27;20229;-79
2021/03/21 00:06:40;;;;;;;6.90;5.60;;;;;;;;;;5088262;27;20226;-78
2021/03/21 00:09:09;;;;;;;8.37;5.20;;;;;;;;;;5067233;28;20233;-80
2021/03/21 00:11:37;;;;;;;7.90;5.27;;;;;;;;;;5087701;27;20233;-78
2021/03/21 00:14:05;;;;;;;6.63;5.30;;;;;;;;;;5083263;27;20225;-78
2021/03/21 00:16:34;;;;;;;6.07;5.43;;;;;;;;;;5103012;27;20227;-78
2021/03/21 00:19:03;;;;;;;6.67;5.43;;;;;;;;;;5087564;27;20236;-78
2021/03/21 00:21:32;;;;;;;5.77;5.17;;;;;;;;;;5103452;27;20232;-78
2021/03/21 00:23:59;;;;;;;8.47;5.47;;;;;;;;;;5073614;27;20229;-78
2021/03/21 00:26:33;;;;;;;6.47;5.00;;;;;;;;;;5086712;27;20267;-78
2021/03/21 00:29:01;;;;;;;6.80;5.57;;;;;;;;;;5079521;27;20225;-79
2021/03/21 00:31:29;;;;;;;6.07;4.93;;;;;;;;;;5077860;28;20231;-78
2021/03/21 00:33:57;;;;;;;6.90;5.07;;;;;;;;;;5110465;27;20222;-78
2021/03/21 00:36:24;;;;;;;7.43;5.47;;;;;;;;;;5096470;27;20228;-78
2021/03/21 00:38:54;;;;;;;6.83;5.20;;;;;;;;;;5105718;28;20229;-79
2021/03/21 00:41:23;;;;;;;7.10;5.43;;;;;;;;;;5087907;28;20701;-79
2021/03/21 00:43:51;;;;;;;6.60;5.30;;;;;;;;;;5095969;28;20716;-79
2021/03/21 00:46:19;;;;;;;8.23;5.70;;;;;;;;;;5082375;28;20225;-79
2021/03/21 00:48:46;;;;;;;8.00;5.17;;;;;;;;;;5089801;27;20229;-80
2021/03/21 00:51:15;;;;;;;6.67;5.37;;;;;;;;;;5086407;28;20228;-78
2021/03/21 00:53:43;;;;;;;6.80;5.17;;;;;;;;;;5074200;27;21583;-77
2021/03/21 00:56:23;;;;;;;7.13;5.33;;;;;;;;;;5093002;28;20236;-77
2021/03/21 00:58:50;;;;;;;5.23;4.57;;;;;;;;;;5090842;27;20220;-77
2021/03/21 01:01:18;;;;;;;6.93;5.37;;;;;;;;;;5092537;28;20608;-78
2021/03/21 01:03:46;;;;;;;6.07;5.03;;;;;;;;;;5079891;27;20720;-78
2021/03/21 01:06:14;;;;;;;7.03;4.80;;;;;;;;;;5095150;28;20587;-79
2021/03/21 01:08:42;;;;;;;7.10;5.30;;;;;;;;;;5108331;28;20233;-78
2021/03/21 01:11:13;;;;;;;5.13;4.63;;;;;;;;;;5105663;28;20235;-77
2021/03/21 01:13:42;;;;;;;6.57;5.03;;;;;;;;;;5103419;28;20231;-79
2021/03/21 01:16:13;;;;;;;6.30;5.13;;;;;;;;;;5094319;28;20748;-77
2021/03/21 01:18:41;;;;;;;6.57;4.90;;;;;;;;;;5089445;28;20221;-78
2021/03/21 01:21:11;;;;;;;6.40;4.80;;;;;;;;;;5093695;28;20240;-77
2021/03/21 01:23:39;;;;;;;5.80;5.07;;;;;;;;;;5094150;28;20232;-78
2021/03/21 01:26:09;;;;;;;6.10;4.80;;;;;;;;;;5070247;28;20252;-77
2021/03/21 01:28:38;;;;;;;7.27;5.00;;;;;;;;;;5080236;28;20231;-78
2021/03/21 01:31:07;;;;;;;6.47;4.93;;;;;;;;;;5091795;28;20238;-78
2021/03/21 01:33:36;;;;;;;6.67;5.00;;;;;;;;;;5114808;28;20223;-77
2021/03/21 01:36:07;;;;;;;6.67;5.40;;;;;;;;;;5094486;28;20875;-80
2021/03/21 01:38:34;;;;;;;6.03;4.43;;;;;;;;;;5094070;27;20243;-78
2021/03/21 01:41:05;;;;;;;6.03;4.87;;;;;;;;;;5098417;27;20236;-77
2021/03/21 01:43:34;;;;;;;5.03;4.53;;;;;;;;;;5106200;28;20228;-77
2021/03/21 01:46:04;;;;;;;6.50;5.10;;;;;;;;;;5094318;27;20733;-77
2021/03/21 01:48:37;;;;;;;4.80;4.30;;;;;;;;;;5097772;28;20225;-78
2021/03/21 01:51:07;;;;;;;6.00;4.93;;;;;;;;;;5098546;28;20221;-77
2021/03/21 01:53:37;;;;;;;5.93;4.60;;;;;;;;;;5088091;28;20225;-78
2021/03/21 01:56:06;;;;;;;5.27;4.40;;;;;;;;;;5090695;28;20233;-78
2021/03/21 01:58:35;;;;;;;5.97;4.53;;;;;;;;;;5091179;28;20235;-77
2021/03/21 02:01:11;;;;;;;7.53;4.80;;;;;;;;;;5091106;27;20726;-77
2021/03/21 02:03:39;;;;;;;4.83;4.40;;;;;;;;;;5104776;28;20231;-78
2021/03/21 02:06:29;;;;;;;4.70;4.03;;;;;;;;;;5082046;28;20232;-79
2021/03/21 02:09:04;;;;;;;6.27;4.70;;;;;;;;;;5100567;27;20236;-78
2021/03/21 02:11:42;;;;;;;6.50;5.00;;;;;;;;;;5076723;28;20698;-77
2021/03/21 02:14:17;;;;;;;4.70;4.23;;;;;;;;;;5088887;28;20714;-77
2021/03/21 02:16:50;;;;;;;4.87;4.07;;;;;;;;;;5072857;28;20236;-78
2021/03/21 02:19:40;;;;;;;5.20;4.43;;;;;;;;;;5075865;28;20228;-77
2021/03/21 02:22:11;;;;;;;5.10;4.30;;;;;;;;;;5086478;28;20231;-77
2021/03/21 02:25:07;;;;;;;5.27;4.13;;;;;;;;;;5094821;28;20696;-78
2021/03/21 02:27:46;;;;;;;5.47;4.10;;;;;;;;;;5076410;28;20243;-77
2021/03/21 02:30:19;;;;;;;5.50;4.60;;;;;;;;;;5090924;28;20597;-78
2021/03/21 02:32:52;;;;;;;5.67;4.20;;;;;;;;;;5093761;27;20600;-77
2021/03/21 02:35:24;;;;;;;6.17;4.80;;;;;;;;;;5088444;27;20228;-77
2021/03/21 02:37:59;;;;;;;5.53;4.20;;;;;;;;;;5085871;28;20233;-78
2021/03/21 02:40:29;;;;;;;5.33;4.20;;;;;;;;;;5112744;27;20303;-77
2021/03/21 02:43:02;;;;;;;5.80;4.47;;;;;;;;;;5097216;27;20595;-77
2021/03/21 02:45:33;;;;;;;4.70;3.97;;;;;;;;;;5089023;28;20240;-78
2021/03/21 02:48:02;;;;;;;5.30;4.20;;;;;;;;;;5104061;27;20236;-77
2021/03/21 02:50:34;;;;;;;5.37;4.00;;;;;;;;;;5097773;28;20238;-77
2021/03/21 02:53:06;;;;;;;5.70;4.20;;;;;;;;;;5095857;27;20232;-77
2021/03/21 02:55:37;;;;;;;6.03;4.53;;;;;;;;;;5088068;27;20233;-78
2021/03/21 02:58:08;;;;;;;5.80;4.53;;;;;;;;;;5087806;27;20212;-77
2021/03/21 03:00:41;;;;;;;6.47;4.67;;;;;;;;;;5094806;27;20230;-77
2021/03/21 03:03:10;;;;;;;6.43;4.90;;;;;;;;;;5088306;28;20223;-77
2021/03/21 03:05:41;;;;;;;7.33;4.60;;;;;;;;;;5096076;27;20812;-77
2021/03/21 03:08:12;;;;;;;4.87;4.30;;;;;;;;;;5082895;28;20218;-77
2021/03/21 03:10:45;;;;;;;6.10;4.23;;;;;;;;;;5085732;27;21096;-78
2021/03/21 03:13:18;;;;;;;5.17;4.27;;;;;;;;;;5096559;27;20604;-77
2021/03/21 03:15:46;;;;;;;4.87;4.37;;;;;;;;;;5106003;27;20232;-77
2021/03/21 03:18:30;;;;;;;5.30;4.43;;;;;;;;;;5095397;28;20224;-78
2021/03/21 03:21:04;;;;;;;4.87;4.10;;;;;;;;;;5103262;28;20232;-77
2021/03/21 03:23:35;;;;;;;5.23;4.73;;;;;;;;;;5105276;28;20234;-78
2021/03/21 03:26:06;;;;;;;5.13;4.63;;;;;;;;;;5092542;28;20236;-78
2021/03/21 03:28:39;;;;;;;5.20;4.60;;;;;;;;;;5092161;28;20227;-78
2021/03/21 03:31:11;;;;;;;8.43;4.27;;;;;;;;;;5075554;28;20456;-78
2021/03/21 03:33:40;;;;;;;4.83;4.13;;;;;;;;;;5090690;28;20221;-78
2021/03/21 03:36:10;;;;;;;6.47;5.07;;;;;;;;;;5101946;28;20224;-78
2021/03/21 03:38:39;;;;;;;4.33;3.93;;;;;;;;;;5097480;27;21602;-78
2021/03/21 03:41:08;;;;;;;5.30;4.40;;;;;;;;;;5064571;28;20573;-78
2021/03/21 03:43:43;;;;;;;5.30;4.33;;;;;;;;;;5065171;28;20225;-77
2021/03/21 03:46:15;;;;;;;5.27;4.50;;;;;;;;;;5077461;28;20231;-77
2021/03/21 03:48:50;;;;;;;4.40;3.97;;;;;;;;;;5065627;27;20271;-78
2021/03/21 03:51:27;;;;;;;5.27;4.40;;;;;;;;;;5097155;27;20704;-79
2021/03/21 03:54:08;;;;;;;5.27;4.20;;;;;;;;;;5096436;27;20228;-77
2021/03/21 03:56:44;;;;;;;4.80;4.30;;;;;;;;;;5090905;27;20243;-77
2021/03/21 03:59:23;;;;;;;5.23;3.93;;;;;;;;;;5109944;27;20235;-77
2021/03/21 04:01:57;;;;;;;5.50;4.20;;;;;;;;;;5091498;27;20283;-77
2021/03/21 04:04:32;;;;;;;4.17;3.73;;;;;;;;;;5103939;28;20223;-77
2021/03/21 04:07:08;;;;;;;4.53;4.00;;;;;;;;;;5091651;27;20235;-77
2021/03/21 04:09:40;;;;;;;4.40;3.73;;;;;;;;;;5071407;28;20220;-78
2021/03/21 04:12:10;;;;;;;4.97;4.37;;;;;;;;;;5077186;28;20252;-78
2021/03/21 04:14:40;;;;;;;6.10;3.90;;;;;;;;;;5074873;28;20247;-78
2021/03/21 04:17:13;;;;;;;5.67;4.27;;;;;;;;;;5062332;28;20233;-78
2021/03/21 04:19:46;;;;;;;4.87;3.80;;;;;;;;;;5078344;28;20229;-77
2021/03/21 04:22:18;;;;;;;6.07;4.30;;;;;;;;;;5123791;27;20226;-77
2021/03/21 04:24:49;;;;;;;5.40;4.23;;;;;;;;;;5105220;27;20227;-77
2021/03/21 04:27:20;;;;;;;6.20;4.43;;;;;;;;;;5112107;28;20231;-77
2021/03/21 04:29:57;;;;;;;5.73;4.53;;;;;;;;;;5090335;28;20238;-78
2021/03/21 04:32:31;;;;;;;5.20;4.20;;;;;;;;;;5120357;28;20354;-78
2021/03/21 04:35:06;;;;;;;5.13;3.77;;;;;;;;;;5111236;27;20222;-78
2021/03/21 04:37:34;;;;;;;5.10;4.50;;;;;;;;;;5103388;28;20305;-78
2021/03/21 04:40:02;;;;;;;5.40;4.07;;;;;;;;;;5095050;27;20234;-78
2021/03/21 04:42:37;;;;;;;5.27;4.10;;;;;;;;;;5083321;28;20243;-78
2021/03/21 04:45:09;;;;;;;6.00;4.40;;;;;;;;;;5105031;28;20234;-78
2021/03/21 04:47:42;;;;;;;6.33;4.50;;;;;;;;;;5119687;28;20243;-78
2021/03/21 04:50:11;;;;;;;4.77;4.07;;;;;;;;;;5122929;28;20578;-79
2021/03/21 04:52:43;;;;;;;4.57;3.83;;;;;;;;;;5105077;28;20233;-79
2021/03/21 04:55:15;;;;;;;5.03;4.47;;;;;;;;;;5116229;27;20225;-78
2021/03/21 04:57:46;;;;;;;4.70;4.20;;;;;;;;;;5113009;28;20231;-79
2021/03/21 05:00:37;;;;;;;5.27;4.17;;;;;;;;;;5092811;28;20231;-78
2021/03/21 05:03:13;;;;;;;5.00;4.20;;;;;;;;;;5103607;28;20233;-78
2021/03/21 05:05:44;;;;;;;5.07;4.10;;;;;;;;;;5111885;27;20231;-79
2021/03/21 05:08:16;;;;;;;4.93;3.90;;;;;;;;;;5115344;27;20243;-78
2021/03/21 05:10:46;;;;;;;6.23;4.77;;;;;;;;;;5080332;28;20229;-78
2021/03/21 05:13:19;;;;;;;4.73;3.93;;;;;;;;;;5084561;28;20585;-78
2021/03/21 05:15:48;;;;;;;4.83;4.30;;;;;;;;;;5108268;27;20240;-79
2021/03/21 05:18:28;;;;;;;5.67;4.13;;;;;;;;;;5115934;27;20228;-78
2021/03/21 05:21:03;;;;;;;5.13;4.33;;;;;;;;;;5099101;27;20226;-77
2021/03/21 05:23:36;;;;;;;4.97;3.80;;;;;;;;;;5116355;27;20223;-78
2021/03/21 05:26:07;;;;;;;4.37;3.97;;;;;;;;;;5110522;27;20245;-78
2021/03/21 05:28:47;;;;;;;5.10;4.03;;;;;;;;;;5114357;27;20229;-78
2021/03/21 05:31:16;;;;;;;4.40;4.00;;;;;;;;;;5104044;28;20224;-77
2021/03/21 05:33:45;;;;;;;5.33;4.23;;;;;;;;;;5103400;27;20232;-77
2021/03/21 05:36:25;;;;;;;4.80;4.13;;;;;;;;;;5090268;28;20232;-77
2021/03/21 05:38:56;;;;;;;6.53;4.20;;;;;;;;;;5083553;28;20244;-78
2021/03/21 05:41:52;;;;;;;5.23;3.93;;;;;;;;;;5089305;28;20232;-77
2021/03/21 05:45:02;;;;;;;6.77;3.80;;;;;;;;;;5112642;27;20233;-79
2021/03/21 05:47:45;;;;;;;5.03;4.20;;;;;;;;;;5020509;27;20236;-79
2021/03/21 05:50:47;;;;;;;5.90;4.70;;;;;;;;;;5098315;27;20236;-78
2021/03/21 05:53:25;;;;;;;5.60;4.30;;;;;;;;;;5078841;27;20224;-79
2021/03/21 05:56:01;;;;;;;7.70;4.83;;;;;;;;;;5097178;28;20237;-78
2021/03/21 05:58:49;;;;;;;6.77;4.90;;;;;;;;;;5111886;27;20553;-78
2021/03/21 06:01:44;;;;;;;6.60;5.30;;;;;;;;;;5088908;28;20232;-78
2021/03/21 06:05:19;;;;;;;6.20;4.77;;;;;;;;;;5093001;28;20696;-78
2021/03/21 06:08:05;;;;;;;5.57;4.77;;;;;;;;;;4985644;28;20735;-79
2021/03/21 06:11:19;;;;;;;5.33;4.83;;;;;;;;;;4994815;28;20231;-78
2021/03/21 06:13:57;;;;;;;5.43;4.57;;;;;;;;;;5079939;28;20239;-79
2021/03/21 06:16:33;;;;;;;6.30;5.20;;;;;;;;;;5078043;28;20883;-78
2021/03/21 06:19:38;;;;;;;6.10;5.50;;;;;;;;;;5078249;27;20220;-78
2021/03/21 06:22:23;;;;;;;7.07;5.10;;;;;;;;;;5071235;28;20237;-77
2021/03/21 06:25:24;;;;;;;6.90;4.93;;;;;;;;;;5075544;28;20231;-77
2021/03/21 06:28:14;;;;;;;5.73;4.80;;;;;;;;;;5052628;28;20722;-77
2021/03/21 06:31:15;;;;;;;5.60;5.00;;;;;;;;;;5079703;27;20239;-78
2021/03/21 06:33:47;;;;;;;6.57;5.33;;;;;;;;;;5073734;27;20235;-79
2021/03/21 06:36:23;;;;;;;5.43;4.83;;;;;;;;;;5102696;27;20614;-78
2021/03/21 06:39:30;;;;;;;5.97;5.10;;;;;;;;;;5093851;27;20229;-79
2021/03/21 06:42:14;;;;;;;7.20;4.97;;;;;;;;;;5079592;27;20226;-78
2021/03/21 06:44:56;;;;;;;6.03;4.83;;;;;;;;;;5099998;27;20228;-77
2021/03/21 06:47:34;;;;;;;6.13;4.70;;;;;;;;;;5096195;27;20229;-78
2021/03/21 06:50:15;;;;;;;5.80;5.03;;;;;;;;;;5087815;28;20225;-78
2021/03/21 06:52:46;;;;;;;5.87;4.90;;;;;;;;;;5078038;28;20990;-78
2021/03/21 06:55:21;;;;;;;7.73;4.97;;;;;;;;;;5057001;28;20613;-77
2021/03/21 06:58:23;;;;;;;5.90;4.57;;;;;;;;;;5070194;28;20994;-77
2021/03/21 07:01:06;;;;;;;6.23;4.90;;;;;;;;;;5055758;28;20233;-77
2021/03/21 07:04:09;;;;;;;5.37;4.23;;;;;;;;;;5072566;28;20230;-78
2021/03/21 07:07:06;;;;;;;5.00;4.40;;;;;;;;;;5090859;28;20236;-78
2021/03/21 07:10:04;;;;;;;5.83;4.10;;;;;;;;;;5108451;28;20240;-78
2021/03/21 07:12:43;;;;;;;7.73;5.13;;;;;;;;;;5107167;28;20197;-79
2021/03/21 07:15:38;;;;;;;6.13;4.60;;;;;;;;;;5120477;27;20213;-81
2021/03/21 07:18:41;;;;;;;6.63;5.00;;;;;;;;;;5116837;28;20217;-78
2021/03/21 07:21:38;;;;;;;6.50;5.03;;;;;;;;;;5087095;28;20232;-79
2021/03/21 07:24:34;;;;;;;5.57;4.70;;;;;;;;;;5088948;28;20241;-78
2021/03/21 07:27:28;;;;;;;5.23;4.67;;;;;;;;;;5110307;28;20225;-78
2021/03/21 07:30:02;;;;;;;6.37;4.83;;;;;;;;;;5110541;28;20233;-78
2021/03/21 07:33:02;;;;;;;4.70;4.20;;;;;;;;;;5109005;28;20254;-78
2021/03/21 07:35:55;;;;;;;6.50;5.20;;;;;;;;;;5104342;28;20706;-78
2021/03/21 07:38:34;;;;;;;6.03;4.80;;;;;;;;;;5109845;28;20229;-78
2021/03/21 07:41:09;;;;;;;5.13;4.57;;;;;;;;;;5108969;28;20221;-78
2021/03/21 07:43:53;;;;;;;5.37;4.80;;;;;;;;;;5114225;28;20220;-79
2021/03/21 07:46:47;;;;;;;6.63;4.47;;;;;;;;;;5100540;28;20228;-77
2021/03/21 07:49:31;;;;;;;4.67;4.20;;;;;;;;;;5105329;28;20690;-78
2021/03/21 07:52:26;;;;;;;5.07;4.20;;;;;;;;;;5114627;28;20232;-77
2021/03/21 07:54:58;;;;;;;4.73;4.23;;;;;;;;;;5101330;28;20217;-78
2021/03/21 07:57:32;;;;;;;4.10;3.70;;;;;;;;;;5110077;28;20236;-78
2021/03/21 08:00:01;;;;;;;4.60;4.10;;;;;;;;;;5087101;27;21321;-78
2021/03/21 08:02:49;;;;;;;4.90;4.40;;;;;;;;;;5106039;27;20694;-78
2021/03/21 08:05:21;;;;;;;4.57;3.90;;;;;;;;;;5086300;27;20229;-78
2021/03/21 08:10:36;;;;;;;5.77;3.83;;;;;;;;;;5107331;28;20225;-79
2021/03/21 08:13:07;;;;;;;4.60;3.60;;;;;;;;;;5106518;27;20223;-77
2021/03/21 08:15:39;;;;;;;7.37;4.00;;;;;;;;;;5099818;28;20225;-80
2021/03/21 08:18:12;;;;;;;7.03;4.50;;;;;;;;;;5098197;28;20232;-78
2021/03/21 08:20:41;;;;;;;5.93;4.33;;;;;;;;;;5096830;28;20883;-79
2021/03/21 08:23:15;;;;;;;4.77;3.67;;;;;;;;;;5101746;28;20229;-79
2021/03/21 08:25:46;;;;;;;5.53;3.77;;;;;;;;;;5100315;27;20797;-78
2021/03/21 08:28:17;;;;;;;5.97;4.60;;;;;;;;;;5087820;28;20229;-79
2021/03/21 08:30:48;;;;;;;6.20;3.90;;;;;;;;;;5085263;28;20228;-78
2021/03/21 08:33:27;;;;;;;6.00;4.23;;;;;;;;;;5092349;28;20222;-77
2021/03/21 08:36:13;;;;;;;4.57;4.17;;;;;;;;;;5102324;28;20246;-78
2021/03/21 08:38:54;;;;;;;5.27;3.97;;;;;;;;;;5090363;28;20236;-79
2021/03/21 08:41:23;;;;;;;4.87;4.00;;;;;;;;;;5102902;28;20225;-78
2021/03/21 08:43:58;;;;;;;6.40;4.53;;;;;;;;;;5086734;27;20237;-80
2021/03/21 08:46:26;;;;;;;5.17;3.90;;;;;;;;;;5115947;27;20224;-78
2021/03/21 08:49:04;;;;;;;4.60;3.93;;;;;;;;;;5089824;28;20781;-78
2021/03/21 08:51:40;;;;;;;6.30;4.00;;;;;;;;;;5094816;28;21053;-79
2021/03/21 08:54:15;;;;;;;5.17;4.13;;;;;;;;;;5092044;27;20221;-79
2021/03/21 08:57:02;;;;;;;5.63;4.27;;;;;;;;;;5062318;27;20719;-79
2021/03/21 08:59:33;;;;;;;4.93;4.10;;;;;;;;;;5072107;28;20218;-80
2021/03/21 09:02:07;;;;;;;5.13;4.23;;;;;;;;;;5079908;27;20232;-80
2021/03/21 09:04:38;;;;;;;7.23;4.33;;;;;;;;;;5084188;28;20898;-79
2021/03/21 09:07:23;;;;;;;6.33;4.33;;;;;;;;;;5080850;28;20238;-79
2021/03/21 09:10:16;;;;;;;6.87;3.57;;;;;;;;;;5105279;27;20229;-80
2021/03/21 09:12:45;;;;;;;5.57;4.50;;;;;;;;;;5099531;28;20221;-79
2021/03/21 09:15:30;;;;;;;5.57;4.00;;;;;;;;;;5105463;27;20221;-82
2021/03/21 09:18:11;;;;;;;6.47;4.40;;;;;;;;;;5083636;28;20234;-78
2021/03/21 09:20:44;;;;;;;5.03;4.07;;;;;;;;;;5099721;28;20232;-79
2021/03/21 09:23:33;;;;;;;5.60;4.20;;;;;;;;;;5112158;28;20222;-79
2021/03/21 09:26:03;;;;;;;5.03;4.07;;;;;;;;;;5103141;27;21105;-80
2021/03/21 09:28:34;;;;;;;5.90;4.27;;;;;;;;;;5094180;28;20214;-78
2021/03/21 09:31:05;;;;;;;6.43;4.30;;;;;;;;;;5114826;27;20217;-80
2021/03/21 09:33:35;;;;;;;5.30;4.27;;;;;;;;;;5104485;27;20221;-79
2021/03/21 09:36:10;;;;;;;7.93;4.80;;;;;;;;;;5107859;27;20237;-79
2021/03/21 09:38:45;;;;;;;5.10;3.73;;;;;;;;;;5108049;28;20233;-79
2021/03/21 09:41:14;;;;;;;5.23;4.07;;;;;;;;;;5087428;28;20225;-78
2021/03/21 09:43:42;;;;;;;8.47;4.60;;;;;;;;;;5108815;27;20617;-79
2021/03/21 09:46:20;;;;;;;4.77;4.10;;;;;;;;;;5103964;27;20230;-80
2021/03/21 09:49:03;;;;;;;5.53;4.23;;;;;;;;;;5106515;27;20724;-80
2021/03/21 09:51:42;;;;;;;5.83;3.90;;;;;;;;;;5089939;28;20240;-79
2021/03/21 09:54:21;;;;;;;4.83;4.13;;;;;;;;;;5105853;27;20234;-79
2021/03/21 09:56:53;;;;;;;6.67;4.30;;;;;;;;;;5131242;27;20236;-79
2021/03/21 09:59:29;;;;;;;5.87;4.10;;;;;;;;;;5104481;27;20576;-78
2021/03/21 10:02:03;;;;;;;5.87;3.90;;;;;;;;;;5083819;27;20227;-79
2021/03/21 10:04:39;;;;;;;6.00;4.20;;;;;;;;;;5105520;27;20371;-80
2021/03/21 10:07:10;;;;;;;5.27;3.77;;;;;;;;;;5096598;28;20231;-80
2021/03/21 10:09:38;;;;;;;5.67;3.90;;;;;;;;;;5108742;27;20236;-78
2021/03/21 10:12:09;;;;;;;6.33;3.70;;;;;;;;;;5103935;27;20706;-79
2021/03/21 10:14:50;;;;;;;4.80;3.93;;;;;;;;;;5104651;27;20233;-78
2021/03/21 10:17:40;;;;;;;5.53;4.10;;;;;;;;;;5087800;28;20232;-79
2021/03/21 10:20:10;;;;;;;5.00;3.97;;;;;;;;;;5107722;27;20227;-78
2021/03/21 10:23:00;;;;;;;4.53;3.87;;;;;;;;;;5100300;28;20235;-78
2021/03/21 10:26:07;;;;;;;6.80;4.33;;;;;;;;;;5107366;27;20240;-78
2021/03/21 10:28:46;;;;;;;6.80;3.70;;;;;;;;;;5102684;27;20240;-78
2021/03/21 10:31:34;;;;;;;4.33;3.17;;;;;;;;;;5103096;27;20237;-78
2021/03/21 10:34:36;;;;;;;4.37;3.67;;;;;;;;;;5085076;28;20229;-78
2021/03/21 10:37:53;;;;;;;6.20;3.80;;;;;;;;;;5048587;28;20239;-78
2021/03/21 10:40:43;;;;;;;4.03;3.07;;;;;;;;;;5078015;27;20229;-81
2021/03/21 10:43:27;;;;;;;3.90;3.37;;;;;;;;;;5062649;28;20296;-79
2021/03/21 10:45:56;;;;;;;4.20;3.03;;;;;;;;;;5092972;27;20607;-79
2021/03/21 10:48:54;;;;;;;4.10;3.10;;;;;;;;;;5105308;27;20221;-80
2021/03/21 10:51:22;;;;;;;4.13;2.97;;;;;;;;;;5112292;27;20232;-79
2021/03/21 10:54:16;;;;;;;4.13;3.50;;;;;;;;;;5079063;27;20218;-79
2021/03/21 10:57:25;;;;;;;5.30;3.03;;;;;;;;;;5090166;27;20234;-78
2021/03/21 11:00:12;;;;;;;5.23;2.93;;;;;;;;;;5069752;28;20746;-80
2021/03/21 11:02:42;;;;;;;5.20;3.03;;;;;;;;;;5097053;27;20464;-79
2021/03/21 11:05:30;;;;;;;5.97;2.93;;;;;;;;;;5102964;28;20221;-79
2021/03/21 11:08:04;;;;;;;4.50;3.03;;;;;;;;;;5094879;27;20217;-78
2021/03/21 11:10:34;;;;;;;5.77;3.60;;;;;;;;;;5097276;27;20245;-78
2021/03/21 11:13:02;;;;;;;4.37;3.23;;;;;;;;;;5082753;27;20225;-78
2021/03/21 11:15:34;;;;;;;6.37;3.70;;;;;;;;;;5073824;28;20232;-79
2021/03/21 11:18:15;;;;;;;5.07;3.30;;;;;;;;;;5090799;27;20228;-79
2021/03/21 11:20:43;;;;;;;4.90;3.93;;;;;;;;;;5109599;27;20225;-79
2021/03/21 11:23:18;;;;;;;4.23;3.43;;;;;;;;;;5103042;27;20224;-79
2021/03/21 11:25:47;;;;;;;4.83;3.70;;;;;;;;;;5111138;27;20229;-78
2021/03/21 11:28:25;;;;;;;3.83;3.10;;;;;;;;;;5104879;27;20225;-78
2021/03/21 11:30:55;;;;;;;4.60;3.27;;;;;;;;;;5101227;27;20256;-78
2021/03/21 11:33:31;;;;;;;4.80;3.37;;;;;;;;;;5096723;27;20229;-78
2021/03/21 11:36:10;;;;;;;8.27;3.70;;;;;;;;;;5089066;27;20221;-78
2021/03/21 11:38:40;;;;;;;5.07;3.30;;;;;;;;;;5103009;27;20215;-78
2021/03/21 11:41:19;;;;;;;4.43;3.37;;;;;;;;;;5089316;27;20222;-78
2021/03/21 11:43:47;;;;;;;5.63;3.50;;;;;;;;;;5084635;27;20229;-79
2021/03/21 11:46:27;;;;;;;5.30;3.73;;;;;;;;;;5092326;27;20240;-77
2021/03/21 11:48:58;;;;;;;4.83;3.57;;;;;;;;;;5076861;27;20236;-78
2021/03/21 11:51:26;;;;;;;5.77;3.70;;;;;;;;;;5088726;27;20698;-77
2021/03/21 11:53:55;;;;;;;6.30;3.60;;;;;;;;;;5107802;27;20210;-79
2021/03/21 11:56:27;;;;;;;3.80;3.37;;;;;;;;;;5095829;28;20214;-78
2021/03/21 11:58:58;;;;;;;5.90;4.20;;;;;;;;;;5113927;27;20226;-77
2021/03/21 12:01:32;;;;;;;5.53;4.10;;;;;;;;;;5114233;27;20206;-78
2021/03/21 12:04:02;;;;;;;6.80;4.00;;;;;;;;;;5080610;27;20240;-77
2021/03/21 12:06:33;;;;;;;7.17;4.20;;;;;;;;;;5084898;27;20217;-79
2021/03/21 12:09:12;;;;;;;5.93;4.13;;;;;;;;;;5087097;27;20296;-81
2021/03/21 12:11:42;;;;;;;5.60;4.07;;;;;;;;;;5080468;27;20612;-79
2021/03/21 12:14:43;;;;;;;6.53;4.00;;;;;;;;;;5111422;27;20235;-79
2021/03/21 12:17:32;;;;;;;6.00;4.33;;;;;;;;;;5087655;27;20230;-78
2021/03/21 12:20:38;;;;;;;7.93;4.10;;;;;;;;;;5110437;27;20213;-78
2021/03/21 12:23:21;;;;;;;5.27;3.87;;;;;;;;;;5122993;27;20230;-77
2021/03/21 12:26:03;;;;;;;5.73;3.60;;;;;;;;;;5099797;27;20316;-79
2021/03/21 12:28:31;;;;;;;5.70;4.13;;;;;;;;;;5108964;28;20213;-82
2021/03/21 12:31:01;;;;;;;5.17;4.30;;;;;;;;;;5124685;27;20223;-81
2021/03/21 12:33:32;;;;;;;4.57;3.67;;;;;;;;;;5119929;27;20223;-78
2021/03/21 12:36:13;;;;;;;6.13;4.70;;;;;;;;;;5102122;27;20234;-78
2021/03/21 12:38:46;;;;;;;6.30;4.07;;;;;;;;;;5078394;27;20236;-80
2021/03/21 12:41:49;;;;;;;5.60;3.87;;;;;;;;;;5079762;28;20863;-77
2021/03/21 12:44:20;;;;;;;4.67;4.00;;;;;;;;;;5048091;28;20790;-76
2021/03/21 12:46:51;;;;;;;6.93;3.93;;;;;;;;;;5090765;27;20228;-77
2021/03/21 12:49:49;;;;;;;5.67;4.30;;;;;;;;;;5085883;28;20225;-77
2021/03/21 12:52:25;;;;;;;5.60;4.00;;;;;;;;;;5101495;28;20221;-76
2021/03/21 12:54:54;;;;;;;7.07;4.60;;;;;;;;;;5106780;28;20210;-75
2021/03/21 12:57:22;;;;;;;6.03;4.27;;;;;;;;;;5110503;28;20450;-76
2021/03/21 12:59:51;;;;;;;7.20;4.40;;;;;;;;;;5088841;28;20229;-78
2021/03/21 13:02:24;;;;;;;6.23;4.63;;;;;;;;;;5097166;27;20221;-77
2021/03/21 13:04:52;;;;;;;5.40;4.90;;;;;;;;;;5099194;27;20757;-78
2021/03/21 13:07:20;;;;;;;5.10;4.07;;;;;;;;;;5089121;28;20232;-78
2021/03/21 13:09:48;;;;;;;5.33;4.13;;;;;;;;;;5117653;27;20406;-77
2021/03/21 13:12:16;;;;;;;10.13;4.60;;;;;;;;;;5112056;27;20224;-78
2021/03/21 13:14:47;;;;;;;5.93;4.00;;;;;;;;;;5119616;27;20206;-78
2021/03/21 13:17:22;;;;;;;8.43;4.93;;;;;;;;;;5117378;28;20227;-75
2021/03/21 13:19:49;;;;;;;4.10;3.57;;;;;;;;;;5113174;27;20229;-78
2021/03/21 13:22:17;;;;;;;7.20;4.40;;;;;;;;;;5112821;27;20222;-79
2021/03/21 13:24:45;;;;;;;6.33;4.30;;;;;;;;;;5080688;28;20687;-78
2021/03/21 13:27:12;;;;;;;9.23;4.87;;;;;;;;;;5089967;28;20681;-77
2021/03/21 13:29:42;;;;;;;5.00;3.93;;;;;;;;;;5115262;27;20222;-80
2021/03/21 13:32:13;;;;;;;6.13;3.63;;;;;;;;;;5080850;28;20233;-77
2021/03/21 13:34:44;;;;;;;7.50;3.97;;;;;;;;;;5105428;27;20228;-80
2021/03/21 13:37:20;;;;;;;9.03;6.93;;;;;;;;;;5144476;27;20213;-77
2021/03/21 13:39:50;;;;;;;4.60;3.57;;;;;;;;;;5115969;27;20223;-78
2021/03/21 13:42:19;;;;;;;7.50;4.33;;;;;;;;;;5072679;28;20218;-78
2021/03/21 13:44:47;;;;;;;5.43;4.07;;;;;;;;;;5081375;28;20226;-76
2021/03/21 13:47:15;;;;;;;8.20;5.00;;;;;;;;;;5106494;27;20229;-76
2021/03/21 13:49:43;;;;;;;6.50;4.23;;;;;;;;;;5107922;27;20229;-79
2021/03/21 13:52:12;;;;;;;5.60;3.50;;;;;;;;;;5088411;28;20237;-77
2021/03/21 13:54:40;;;;;;;3.73;3.20;;;;;;;;;;5109830;27;20512;-79
2021/03/21 13:57:08;;;;;;;4.80;3.73;;;;;;;;;;5103768;27;20241;-77
2021/03/21 13:59:35;;;;;;;4.87;3.90;;;;;;;;;;5097421;28;20227;-76
2021/03/21 14:02:04;;;;;;;6.83;4.30;;;;;;;;;;5108991;27;20227;-76
2021/03/21 14:04:32;;;;;;;4.97;3.77;;;;;;;;;;5100964;27;20229;-77
2021/03/21 14:07:00;;;;;;;5.70;4.10;;;;;;;;;;5099165;27;20590;-78
2021/03/21 14:09:28;;;;;;;6.80;4.20;;;;;;;;;;5092553;28;20213;-77
2021/03/21 14:11:55;;;;;;;5.17;3.60;;;;;;;;;;5098617;28;20602;-78
2021/03/21 14:14:23;;;;;;;8.10;4.03;;;;;;;;;;5088471;28;20660;-77
2021/03/21 14:16:50;;;;;;;5.23;3.53;;;;;;;;;;5106087;27;20716;-78
2021/03/21 14:19:19;;;;;;;7.67;4.33;;;;;;;;;;5106474;27;20421;-78
2021/03/21 14:21:47;;;;;;;6.87;4.70;;;;;;;;;;5101333;27;20320;-77
2021/03/21 14:24:15;;;;;;;6.23;4.33;;;;;;;;;;5102726;27;20248;-78
2021/03/21 14:26:52;;;;;;;7.27;5.07;;;;;;;;;;5115736;27;20229;-77
2021/03/21 14:29:20;;;;;;;7.70;5.17;;;;;;;;;;5096374;28;20222;-78
2021/03/21 14:31:48;;;;;;;7.60;4.60;;;;;;;;;;5108000;27;20222;-78
2021/03/21 14:34:16;;;;;;;8.67;4.37;;;;;;;;;;5089713;28;20228;-78
2021/03/21 14:36:44;;;;;;;6.57;4.27;;;;;;;;;;5107528;27;20237;-77
2021/03/21 14:39:12;;;;;;;6.47;4.47;;;;;;;;;;5105286;27;20226;-80
2021/03/21 14:41:40;;;;;;;5.37;4.27;;;;;;;;;;5107333;27;20256;-79
2021/03/21 14:44:07;;;;;;;5.63;4.10;;;;;;;;;;5113129;28;20232;-79
2021/03/21 14:46:35;;;;;;;5.00;3.90;;;;;;;;;;5092232;28;20618;-79
2021/03/21 14:49:03;;;;;;;4.67;4.13;;;;;;;;;;5104179;27;20628;-78
2021/03/21 14:51:30;;;;;;;7.53;4.30;;;;;;;;;;5109672;27;20237;-77
2021/03/21 14:53:59;;;;;;;5.20;3.90;;;;;;;;;;5090671;27;20234;-78
2021/03/21 14:56:27;;;;;;;6.07;4.03;;;;;;;;;;5107921;28;20229;-79
2021/03/21 14:58:54;;;;;;;7.27;4.60;;;;;;;;;;5106993;27;20431;-77
2021/03/21 15:01:22;;;;;;;5.93;4.10;;;;;;;;;;5116283;27;20228;-79
2021/03/21 15:03:50;;;;;;;5.90;4.07;;;;;;;;;;5115424;27;20227;-77
2021/03/21 15:06:18;;;;;;;6.47;4.37;;;;;;;;;;5121856;27;20235;-78
2021/03/21 15:08:46;;;;;;;5.60;4.00;;;;;;;;;;5129560;27;20243;-77
2021/03/21 15:11:14;;;;;;;5.70;4.10;;;;;;;;;;5105469;27;20225;-79
2021/03/21 15:13:43;;;;;;;4.97;3.83;;;;;;;;;;5104313;27;20226;-78
2021/03/21 15:16:11;;;;;;;5.93;4.40;;;;;;;;;;5110738;27;20225;-78
2021/03/21 15:18:42;;;;;;;6.97;5.00;;;;;;;;;;5097607;27;20500;-77
2021/03/21 15:21:11;;;;;;;5.33;4.57;;;;;;;;;;5110446;27;20594;-78
2021/03/21 15:23:40;;;;;;;5.00;4.10;;;;;;;;;;5113766;27;20225;-77
2021/03/21 15:26:11;;;;;;;6.37;4.10;;;;;;;;;;5118791;27;20224;-78
2021/03/21 15:28:40;;;;;;;5.60;4.70;;;;;;;;;;5102381;28;20339;-77
2021/03/21 15:31:10;;;;;;;5.43;4.07;;;;;;;;;;5102264;28;20248;-78
2021/03/21 15:33:38;;;;;;;5.67;4.20;;;;;;;;;;5098017;28;20729;-78
2021/03/21 15:36:07;;;;;;;5.73;3.73;;;;;;;;;;5106908;27;20228;-78